sensor_id;sensor_type;location;lat;lon;timestamp;temperature;humidity
3528;DHT22;1778;47.966;7.854;2022-11-10T00:00:00;11.60;99.90
3528;DHT22;1778;47.966;7.854;2022-11-10T00:01:21;11.60;99.90
3528;DHT22;1778;47.966;7.854;2022-11-10T00:02:41;11.60;99.90
3528;DHT22;1778;47.966;7.854;2022-11-10T00:04:02;11.60;99.90
3528;DHT22;1778;47.966;7.854;2022-11-10T00:05:22;11.60;99.90
3528;DHT22;1778;47.966;7.854;2022-11-10T00:06:43;11.60;99.90
3528;DHT22;1778;47.966;7.854;2022-11-10T00:08:07;11.60;99.90
3528;DHT22;1778;47.966;7.854;2022-11-10T00:09:28;11.50;99.90
3528;DHT22;1778;47.966;7.854;2022-11-10T00:10:48;11.50;99.90
3528;DHT22;1778;47.966;7.854;2022-11-10T00:12:18;11.50;99.90
3528;DHT22;1778;47.966;7.854;2022-11-10T00:13:39;11.50;99.90
3528;DHT22;1778;47.966;7.854;2022-11-10T00:15:18;11.40;99.90
3528;DHT22;1778;47.966;7.854;2022-11-10T00:16:57;11.40;99.90
3528;DHT22;1778;47.966;7.854;2022-11-10T00:18:20;11.50;99.90
3528;DHT22;1778;47.966;7.854;2022-11-10T00:19:40;11.40;99.90
3528;DHT22;1778;47.966;7.854;2022-11-10T00:21:04;11.40;99.90
3528;DHT22;1778;47.966;7.854;2022-11-10T00:22:25;11.40;99.90
3528;DHT22;1778;47.966;7.854;2022-11-10T00:23:45;11.30;99.90
3528;DHT22;1778;47.966;7.854;2022-11-10T00:25:06;11.40;99.90
3528;DHT22;1778;47.966;7.854;2022-11-10T00:26:27;11.40;99.90
3528;DHT22;1778;47.966;7.854;2022-11-10T00:27:47;11.40;99.90
3528;DHT22;1778;47.966;7.854;2022-11-10T00:29:08;11.40;99.90
3528;DHT22;1778;47.966;7.854;2022-11-10T00:30:29;11.40;99.90
3528;DHT22;1778;47.966;7.854;2022-11-10T00:31:48;11.40;99.90
3528;DHT22;1778;47.966;7.854;2022-11-10T00:33:08;11.40;99.90
3528;DHT22;1778;47.966;7.854;2022-11-10T00:34:28;11.40;99.90
3528;DHT22;1778;47.966;7.854;2022-11-10T00:35:48;11.40;99.90
3528;DHT22;1778;47.966;7.854;2022-11-10T00:37:08;11.40;99.90
3528;DHT22;1778;47.966;7.854;2022-11-10T00:38:28;11.40;99.90
3528;DHT22;1778;47.966;7.854;2022-11-10T00:39:48;11.40;99.90
3528;DHT22;1778;47.966;7.854;2022-11-10T00:41:08;11.40;99.90
3528;DHT22;1778;47.966;7.854;2022-11-10T00:42:29;11.40;99.90
3528;DHT22;1778;47.966;7.854;2022-11-10T00:43:49;11.30;99.90
3528;DHT22;1778;47.966;7.854;2022-11-10T00:45:09;11.30;99.90
3528;DHT22;1778;47.966;7.854;2022-11-10T00:46:29;11.30;99.90
3528;DHT22;1778;47.966;7.854;2022-11-10T00:47:49;11.30;99.90
3528;DHT22;1778;47.966;7.854;2022-11-10T00:49:09;11.30;99.90
3528;DHT22;1778;47.966;7.854;2022-11-10T00:50:28;11.30;99.90
3528;DHT22;1778;47.966;7.854;2022-11-10T00:51:49;11.30;99.90
3528;DHT22;1778;47.966;7.854;2022-11-10T00:53:09;11.20;99.90
3528;DHT22;1778;47.966;7.854;2022-11-10T00:54:29;11.20;99.90
3528;DHT22;1778;47.966;7.854;2022-11-10T00:55:49;11.20;99.90
3528;DHT22;1778;47.966;7.854;2022-11-10T00:57:09;11.20;99.90
3528;DHT22;1778;47.966;7.854;2022-11-10T00:58:29;11.20;99.90
3528;DHT22;1778;47.966;7.854;2022-11-10T00:59:49;11.10;99.90
3528;DHT22;1778;47.966;7.854;2022-11-10T01:01:10;11.10;99.90
3528;DHT22;1778;47.966;7.854;2022-11-10T01:02:31;11.10;99.90
3528;DHT22;1778;47.966;7.854;2022-11-10T01:03:52;11.00;99.90
3528;DHT22;1778;47.966;7.854;2022-11-10T01:05:12;11.00;99.90
3528;DHT22;1778;47.966;7.854;2022-11-10T01:06:32;10.90;99.90
3528;DHT22;1778;47.966;7.854;2022-11-10T01:07:53;10.90;99.90
3528;DHT22;1778;47.966;7.854;2022-11-10T01:09:13;10.90;99.90
3528;DHT22;1778;47.966;7.854;2022-11-10T01:10:33;10.90;99.90
3528;DHT22;1778;47.966;7.854;2022-11-10T01:11:54;10.80;99.90
3528;DHT22;1778;47.966;7.854;2022-11-10T01:13:14;10.80;99.90
3528;DHT22;1778;47.966;7.854;2022-11-10T01:14:34;10.80;99.90
3528;DHT22;1778;47.966;7.854;2022-11-10T01:15:54;10.80;99.90
3528;DHT22;1778;47.966;7.854;2022-11-10T01:17:14;10.70;99.90
3528;DHT22;1778;47.966;7.854;2022-11-10T01:18:35;10.60;99.90
3528;DHT22;1778;47.966;7.854;2022-11-10T01:19:56;10.60;99.90
3528;DHT22;1778;47.966;7.854;2022-11-10T01:21:17;10.60;99.90
3528;DHT22;1778;47.966;7.854;2022-11-10T01:22:37;10.50;99.90
3528;DHT22;1778;47.966;7.854;2022-11-10T01:23:57;10.50;99.90
3528;DHT22;1778;47.966;7.854;2022-11-10T01:25:18;10.50;99.90
3528;DHT22;1778;47.966;7.854;2022-11-10T01:26:38;10.50;99.90
3528;DHT22;1778;47.966;7.854;2022-11-10T01:27:59;10.40;99.90
3528;DHT22;1778;47.966;7.854;2022-11-10T01:29:19;10.40;99.90
3528;DHT22;1778;47.966;7.854;2022-11-10T01:30:39;10.40;99.90
3528;DHT22;1778;47.966;7.854;2022-11-10T01:31:59;10.30;99.90
3528;DHT22;1778;47.966;7.854;2022-11-10T01:33:19;10.30;99.90
3528;DHT22;1778;47.966;7.854;2022-11-10T01:34:40;10.20;99.90
3528;DHT22;1778;47.966;7.854;2022-11-10T01:36:00;10.20;99.90
3528;DHT22;1778;47.966;7.854;2022-11-10T01:37:20;10.20;99.90
3528;DHT22;1778;47.966;7.854;2022-11-10T01:38:41;10.20;99.90
3528;DHT22;1778;47.966;7.854;2022-11-10T01:40:03;10.20;99.90
3528;DHT22;1778;47.966;7.854;2022-11-10T01:41:24;10.10;99.90
3528;DHT22;1778;47.966;7.854;2022-11-10T01:44:23;10.10;99.90
3528;DHT22;1778;47.966;7.854;2022-11-10T01:47:09;10.00;99.90
3528;DHT22;1778;47.966;7.854;2022-11-10T01:48:44;10.00;99.90
3528;DHT22;1778;47.966;7.854;2022-11-10T01:50:05;9.90;99.90
3528;DHT22;1778;47.966;7.854;2022-11-10T01:51:29;9.90;99.90
3528;DHT22;1778;47.966;7.854;2022-11-10T01:52:51;9.90;99.90
3528;DHT22;1778;47.966;7.854;2022-11-10T01:54:21;9.90;99.90
3528;DHT22;1778;47.966;7.854;2022-11-10T01:55:44;9.90;99.90
3528;DHT22;1778;47.966;7.854;2022-11-10T01:57:08;9.80;99.90
3528;DHT22;1778;47.966;7.854;2022-11-10T01:58:33;9.80;99.90
3528;DHT22;1778;47.966;7.854;2022-11-10T01:59:59;9.90;99.90
3528;DHT22;1778;47.966;7.854;2022-11-10T02:01:20;9.90;99.90
3528;DHT22;1778;47.966;7.854;2022-11-10T02:02:48;9.90;99.90
3528;DHT22;1778;47.966;7.854;2022-11-10T02:04:13;9.80;99.90
3528;DHT22;1778;47.966;7.854;2022-11-10T02:05:35;9.90;99.90
3528;DHT22;1778;47.966;7.854;2022-11-10T02:06:56;9.80;99.90
3528;DHT22;1778;47.966;7.854;2022-11-10T02:08:17;9.80;99.90
3528;DHT22;1778;47.966;7.854;2022-11-10T02:09:38;9.70;99.90
3528;DHT22;1778;47.966;7.854;2022-11-10T02:10:59;9.70;99.90
3528;DHT22;1778;47.966;7.854;2022-11-10T02:12:18;9.70;99.90
3528;DHT22;1778;47.966;7.854;2022-11-10T02:13:58;9.60;99.90
3528;DHT22;1778;47.966;7.854;2022-11-10T02:15:18;9.70;99.90
3528;DHT22;1778;47.966;7.854;2022-11-10T02:16:39;9.60;99.90
3528;DHT22;1778;47.966;7.854;2022-11-10T02:18:00;9.50;99.90
3528;DHT22;1778;47.966;7.854;2022-11-10T02:19:23;9.50;99.90
3528;DHT22;1778;47.966;7.854;2022-11-10T02:20:45;9.50;99.90
3528;DHT22;1778;47.966;7.854;2022-11-10T02:22:05;9.60;99.90
3528;DHT22;1778;47.966;7.854;2022-11-10T02:24:53;9.50;99.90
3528;DHT22;1778;47.966;7.854;2022-11-10T02:26:16;9.50;99.90
3528;DHT22;1778;47.966;7.854;2022-11-10T02:27:37;9.40;99.90
3528;DHT22;1778;47.966;7.854;2022-11-10T02:28:57;9.30;99.90
3528;DHT22;1778;47.966;7.854;2022-11-10T02:30:16;9.30;99.90
3528;DHT22;1778;47.966;7.854;2022-11-10T02:31:37;9.30;99.90
3528;DHT22;1778;47.966;7.854;2022-11-10T02:32:57;9.30;99.90
3528;DHT22;1778;47.966;7.854;2022-11-10T02:34:17;9.20;99.90
3528;DHT22;1778;47.966;7.854;2022-11-10T02:35:36;9.20;99.90
3528;DHT22;1778;47.966;7.854;2022-11-10T02:36:56;9.20;99.90
3528;DHT22;1778;47.966;7.854;2022-11-10T02:38:16;9.10;99.90
3528;DHT22;1778;47.966;7.854;2022-11-10T02:39:36;9.10;99.90
3528;DHT22;1778;47.966;7.854;2022-11-10T02:40:56;9.10;99.90
3528;DHT22;1778;47.966;7.854;2022-11-10T02:42:18;9.10;99.90
3528;DHT22;1778;47.966;7.854;2022-11-10T02:43:38;9.10;99.90
3528;DHT22;1778;47.966;7.854;2022-11-10T02:44:58;9.10;99.90
3528;DHT22;1778;47.966;7.854;2022-11-10T02:46:18;9.10;99.90
3528;DHT22;1778;47.966;7.854;2022-11-10T02:47:38;9.10;99.90
3528;DHT22;1778;47.966;7.854;2022-11-10T02:48:58;9.10;99.90
3528;DHT22;1778;47.966;7.854;2022-11-10T02:50:18;9.00;99.90
3528;DHT22;1778;47.966;7.854;2022-11-10T02:51:38;8.90;99.90
3528;DHT22;1778;47.966;7.854;2022-11-10T02:52:58;8.90;99.90
3528;DHT22;1778;47.966;7.854;2022-11-10T02:54:18;9.00;99.90
3528;DHT22;1778;47.966;7.854;2022-11-10T02:55:38;8.90;99.90
3528;DHT22;1778;47.966;7.854;2022-11-10T02:56:58;8.90;99.90
3528;DHT22;1778;47.966;7.854;2022-11-10T02:58:18;8.90;99.90
3528;DHT22;1778;47.966;7.854;2022-11-10T02:59:38;8.90;99.90
3528;DHT22;1778;47.966;7.854;2022-11-10T03:00:58;8.90;99.90
3528;DHT22;1778;47.966;7.854;2022-11-10T03:02:18;8.80;99.90
3528;DHT22;1778;47.966;7.854;2022-11-10T03:03:38;8.80;99.90
3528;DHT22;1778;47.966;7.854;2022-11-10T03:04:58;8.80;99.90
3528;DHT22;1778;47.966;7.854;2022-11-10T03:06:18;8.80;99.90
3528;DHT22;1778;47.966;7.854;2022-11-10T03:07:38;8.80;99.90
3528;DHT22;1778;47.966;7.854;2022-11-10T03:08:59;8.80;99.90
3528;DHT22;1778;47.966;7.854;2022-11-10T03:10:19;8.80;99.90
3528;DHT22;1778;47.966;7.854;2022-11-10T03:11:39;8.80;99.90
3528;DHT22;1778;47.966;7.854;2022-11-10T03:13:01;8.80;99.90
3528;DHT22;1778;47.966;7.854;2022-11-10T03:14:21;8.90;99.90
3528;DHT22;1778;47.966;7.854;2022-11-10T03:15:40;8.80;99.90
3528;DHT22;1778;47.966;7.854;2022-11-10T03:17:00;8.80;99.90
3528;DHT22;1778;47.966;7.854;2022-11-10T03:18:20;8.90;99.90
3528;DHT22;1778;47.966;7.854;2022-11-10T03:19:41;8.80;99.90
3528;DHT22;1778;47.966;7.854;2022-11-10T03:21:01;8.80;99.90
3528;DHT22;1778;47.966;7.854;2022-11-10T03:22:21;8.80;99.90
3528;DHT22;1778;47.966;7.854;2022-11-10T03:23:41;8.70;99.90
3528;DHT22;1778;47.966;7.854;2022-11-10T03:25:01;8.70;99.90
3528;DHT22;1778;47.966;7.854;2022-11-10T03:26:21;8.70;99.90
3528;DHT22;1778;47.966;7.854;2022-11-10T03:27:41;8.70;99.90
3528;DHT22;1778;47.966;7.854;2022-11-10T03:29:01;8.70;99.90
3528;DHT22;1778;47.966;7.854;2022-11-10T03:30:21;8.70;99.90
3528;DHT22;1778;47.966;7.854;2022-11-10T03:31:41;8.70;99.90
3528;DHT22;1778;47.966;7.854;2022-11-10T03:33:02;8.70;99.90
3528;DHT22;1778;47.966;7.854;2022-11-10T03:34:22;8.70;99.90
3528;DHT22;1778;47.966;7.854;2022-11-10T03:35:47;8.70;99.90
3528;DHT22;1778;47.966;7.854;2022-11-10T03:37:07;8.70;99.90
3528;DHT22;1778;47.966;7.854;2022-11-10T03:38:27;8.70;99.90
3528;DHT22;1778;47.966;7.854;2022-11-10T03:39:47;8.70;99.90
3528;DHT22;1778;47.966;7.854;2022-11-10T03:41:07;8.60;99.90
3528;DHT22;1778;47.966;7.854;2022-11-10T03:42:44;8.70;99.90
3528;DHT22;1778;47.966;7.854;2022-11-10T03:44:06;8.70;99.90
3528;DHT22;1778;47.966;7.854;2022-11-10T03:45:29;8.70;99.90
3528;DHT22;1778;47.966;7.854;2022-11-10T03:46:49;8.70;99.90
3528;DHT22;1778;47.966;7.854;2022-11-10T03:48:10;8.80;99.90
3528;DHT22;1778;47.966;7.854;2022-11-10T03:49:30;8.70;99.90
3528;DHT22;1778;47.966;7.854;2022-11-10T03:50:50;8.70;99.90
3528;DHT22;1778;47.966;7.854;2022-11-10T03:52:11;8.70;99.90
3528;DHT22;1778;47.966;7.854;2022-11-10T03:53:32;8.70;99.90
3528;DHT22;1778;47.966;7.854;2022-11-10T03:54:52;8.80;99.90
3528;DHT22;1778;47.966;7.854;2022-11-10T03:56:12;8.80;99.90
3528;DHT22;1778;47.966;7.854;2022-11-10T03:57:32;8.80;99.90
3528;DHT22;1778;47.966;7.854;2022-11-10T03:58:52;8.90;99.90
3528;DHT22;1778;47.966;7.854;2022-11-10T04:00:12;8.90;99.90
3528;DHT22;1778;47.966;7.854;2022-11-10T04:01:32;8.90;99.90
3528;DHT22;1778;47.966;7.854;2022-11-10T04:02:52;8.90;99.90
3528;DHT22;1778;47.966;7.854;2022-11-10T04:04:12;8.90;99.90
3528;DHT22;1778;47.966;7.854;2022-11-10T04:05:52;9.00;99.90
3528;DHT22;1778;47.966;7.854;2022-11-10T04:07:31;9.00;99.90
3528;DHT22;1778;47.966;7.854;2022-11-10T04:09:10;9.10;99.90
3528;DHT22;1778;47.966;7.854;2022-11-10T04:10:30;9.20;99.90
3528;DHT22;1778;47.966;7.854;2022-11-10T04:11:50;9.20;99.90
3528;DHT22;1778;47.966;7.854;2022-11-10T04:13:29;9.20;99.90
3528;DHT22;1778;47.966;7.854;2022-11-10T04:15:12;9.10;99.90
3528;DHT22;1778;47.966;7.854;2022-11-10T04:16:51;9.00;99.90
3528;DHT22;1778;47.966;7.854;2022-11-10T04:18:13;9.00;99.90
3528;DHT22;1778;47.966;7.854;2022-11-10T04:19:39;8.90;99.90
3528;DHT22;1778;47.966;7.854;2022-11-10T04:21:01;8.90;99.90
3528;DHT22;1778;47.966;7.854;2022-11-10T04:22:21;8.90;99.90
3528;DHT22;1778;47.966;7.854;2022-11-10T04:24:00;8.90;99.90
3528;DHT22;1778;47.966;7.854;2022-11-10T04:25:21;8.90;99.90
3528;DHT22;1778;47.966;7.854;2022-11-10T04:26:42;8.80;99.90
3528;DHT22;1778;47.966;7.854;2022-11-10T04:28:02;8.80;99.90
3528;DHT22;1778;47.966;7.854;2022-11-10T04:29:22;8.90;99.90
3528;DHT22;1778;47.966;7.854;2022-11-10T04:30:43;8.80;99.90
3528;DHT22;1778;47.966;7.854;2022-11-10T04:32:03;8.80;99.90
3528;DHT22;1778;47.966;7.854;2022-11-10T04:33:23;8.70;99.90
3528;DHT22;1778;47.966;7.854;2022-11-10T04:34:44;8.70;99.90
3528;DHT22;1778;47.966;7.854;2022-11-10T04:36:05;8.60;99.90
3528;DHT22;1778;47.966;7.854;2022-11-10T04:37:25;8.60;99.90
3528;DHT22;1778;47.966;7.854;2022-11-10T04:38:45;8.70;99.90
3528;DHT22;1778;47.966;7.854;2022-11-10T04:40:06;8.60;99.90
3528;DHT22;1778;47.966;7.854;2022-11-10T04:41:28;8.60;99.90
3528;DHT22;1778;47.966;7.854;2022-11-10T04:42:51;8.60;99.90
3528;DHT22;1778;47.966;7.854;2022-11-10T04:44:11;8.60;99.90
3528;DHT22;1778;47.966;7.854;2022-11-10T04:45:32;8.60;99.90
3528;DHT22;1778;47.966;7.854;2022-11-10T04:46:52;8.60;99.90
3528;DHT22;1778;47.966;7.854;2022-11-10T04:48:12;8.50;99.90
3528;DHT22;1778;47.966;7.854;2022-11-10T04:49:32;8.50;99.90
3528;DHT22;1778;47.966;7.854;2022-11-10T04:50:53;8.50;99.90
3528;DHT22;1778;47.966;7.854;2022-11-10T04:52:13;8.50;99.90
3528;DHT22;1778;47.966;7.854;2022-11-10T04:53:33;8.50;99.90
3528;DHT22;1778;47.966;7.854;2022-11-10T04:54:53;8.60;99.90
3528;DHT22;1778;47.966;7.854;2022-11-10T04:56:18;8.50;99.90
3528;DHT22;1778;47.966;7.854;2022-11-10T04:57:39;8.50;99.90
3528;DHT22;1778;47.966;7.854;2022-11-10T04:58:59;8.50;99.90
3528;DHT22;1778;47.966;7.854;2022-11-10T05:00:19;8.50;99.90
3528;DHT22;1778;47.966;7.854;2022-11-10T05:01:39;8.50;99.90
3528;DHT22;1778;47.966;7.854;2022-11-10T05:03:00;8.40;99.90
3528;DHT22;1778;47.966;7.854;2022-11-10T05:04:20;8.40;99.90
3528;DHT22;1778;47.966;7.854;2022-11-10T05:05:40;8.40;99.90
3528;DHT22;1778;47.966;7.854;2022-11-10T05:07:00;8.40;99.90
3528;DHT22;1778;47.966;7.854;2022-11-10T05:08:21;8.30;99.90
3528;DHT22;1778;47.966;7.854;2022-11-10T05:09:41;8.30;99.90
3528;DHT22;1778;47.966;7.854;2022-11-10T05:11:01;8.30;99.90
3528;DHT22;1778;47.966;7.854;2022-11-10T05:12:21;8.20;99.90
3528;DHT22;1778;47.966;7.854;2022-11-10T05:13:42;8.30;99.90
3528;DHT22;1778;47.966;7.854;2022-11-10T05:15:03;8.40;99.90
3528;DHT22;1778;47.966;7.854;2022-11-10T05:16:24;8.40;99.90
3528;DHT22;1778;47.966;7.854;2022-11-10T05:17:47;8.40;99.90
3528;DHT22;1778;47.966;7.854;2022-11-10T05:19:08;8.40;99.90
3528;DHT22;1778;47.966;7.854;2022-11-10T05:20:28;8.30;99.90
3528;DHT22;1778;47.966;7.854;2022-11-10T05:21:48;8.30;99.90
3528;DHT22;1778;47.966;7.854;2022-11-10T05:23:08;8.30;99.90
3528;DHT22;1778;47.966;7.854;2022-11-10T05:24:47;8.30;99.90
3528;DHT22;1778;47.966;7.854;2022-11-10T05:26:15;8.30;99.90
3528;DHT22;1778;47.966;7.854;2022-11-10T05:27:35;8.20;99.90
3528;DHT22;1778;47.966;7.854;2022-11-10T05:28:56;8.20;99.90
3528;DHT22;1778;47.966;7.854;2022-11-10T05:30:16;8.20;99.90
3528;DHT22;1778;47.966;7.854;2022-11-10T05:31:36;8.20;99.90
3528;DHT22;1778;47.966;7.854;2022-11-10T05:32:56;8.10;99.90
3528;DHT22;1778;47.966;7.854;2022-11-10T05:34:17;8.10;99.90
3528;DHT22;1778;47.966;7.854;2022-11-10T05:35:37;8.10;99.90
3528;DHT22;1778;47.966;7.854;2022-11-10T05:36:57;8.10;99.90
3528;DHT22;1778;47.966;7.854;2022-11-10T05:38:17;8.10;99.90
3528;DHT22;1778;47.966;7.854;2022-11-10T05:39:37;8.10;99.90
3528;DHT22;1778;47.966;7.854;2022-11-10T05:40:57;8.00;99.90
3528;DHT22;1778;47.966;7.854;2022-11-10T05:42:18;8.00;99.90
3528;DHT22;1778;47.966;7.854;2022-11-10T05:43:38;8.00;99.90
3528;DHT22;1778;47.966;7.854;2022-11-10T05:44:58;8.00;99.90
3528;DHT22;1778;47.966;7.854;2022-11-10T05:46:18;7.90;99.90
3528;DHT22;1778;47.966;7.854;2022-11-10T05:47:40;7.90;99.90
3528;DHT22;1778;47.966;7.854;2022-11-10T05:49:00;7.90;99.90
3528;DHT22;1778;47.966;7.854;2022-11-10T05:50:22;7.90;99.90
3528;DHT22;1778;47.966;7.854;2022-11-10T05:51:42;7.90;99.90
3528;DHT22;1778;47.966;7.854;2022-11-10T05:53:02;7.90;99.90
3528;DHT22;1778;47.966;7.854;2022-11-10T05:54:23;7.90;99.90
3528;DHT22;1778;47.966;7.854;2022-11-10T05:55:43;7.90;99.90
3528;DHT22;1778;47.966;7.854;2022-11-10T05:57:02;7.80;99.90
3528;DHT22;1778;47.966;7.854;2022-11-10T05:58:22;7.80;99.90
3528;DHT22;1778;47.966;7.854;2022-11-10T05:59:42;7.80;99.90
3528;DHT22;1778;47.966;7.854;2022-11-10T06:01:04;7.80;99.90
3528;DHT22;1778;47.966;7.854;2022-11-10T06:02:24;7.80;99.90
3528;DHT22;1778;47.966;7.854;2022-11-10T06:03:44;7.80;99.90
3528;DHT22;1778;47.966;7.854;2022-11-10T06:05:05;7.70;99.90
3528;DHT22;1778;47.966;7.854;2022-11-10T06:06:25;7.70;99.90
3528;DHT22;1778;47.966;7.854;2022-11-10T06:07:45;7.70;99.90
3528;DHT22;1778;47.966;7.854;2022-11-10T06:09:05;7.70;99.90
3528;DHT22;1778;47.966;7.854;2022-11-10T06:10:26;7.70;99.90
3528;DHT22;1778;47.966;7.854;2022-11-10T06:11:46;7.70;99.90
3528;DHT22;1778;47.966;7.854;2022-11-10T06:13:07;7.70;99.90
3528;DHT22;1778;47.966;7.854;2022-11-10T06:14:27;7.70;99.90
3528;DHT22;1778;47.966;7.854;2022-11-10T06:15:47;7.60;99.90
3528;DHT22;1778;47.966;7.854;2022-11-10T06:17:10;7.70;99.90
3528;DHT22;1778;47.966;7.854;2022-11-10T06:18:31;7.70;99.90
3528;DHT22;1778;47.966;7.854;2022-11-10T06:19:51;7.60;99.90
3528;DHT22;1778;47.966;7.854;2022-11-10T06:21:11;7.60;99.90
3528;DHT22;1778;47.966;7.854;2022-11-10T06:22:31;7.60;99.90
3528;DHT22;1778;47.966;7.854;2022-11-10T06:23:51;7.60;99.90
3528;DHT22;1778;47.966;7.854;2022-11-10T06:25:11;7.60;99.90
3528;DHT22;1778;47.966;7.854;2022-11-10T06:26:31;7.60;99.90
3528;DHT22;1778;47.966;7.854;2022-11-10T06:27:52;7.60;99.90
3528;DHT22;1778;47.966;7.854;2022-11-10T06:29:12;7.60;99.90
3528;DHT22;1778;47.966;7.854;2022-11-10T06:30:33;7.60;99.90
3528;DHT22;1778;47.966;7.854;2022-11-10T06:31:54;7.60;99.90
3528;DHT22;1778;47.966;7.854;2022-11-10T06:33:13;7.50;99.90
3528;DHT22;1778;47.966;7.854;2022-11-10T06:34:33;7.50;99.90
3528;DHT22;1778;47.966;7.854;2022-11-10T06:35:53;7.60;99.90
3528;DHT22;1778;47.966;7.854;2022-11-10T06:37:13;7.50;99.90
3528;DHT22;1778;47.966;7.854;2022-11-10T06:38:34;7.50;99.90
3528;DHT22;1778;47.966;7.854;2022-11-10T06:39:54;7.50;99.90
3528;DHT22;1778;47.966;7.854;2022-11-10T06:41:14;7.60;99.90
3528;DHT22;1778;47.966;7.854;2022-11-10T06:42:38;7.50;99.90
3528;DHT22;1778;47.966;7.854;2022-11-10T06:43:58;7.50;99.90
3528;DHT22;1778;47.966;7.854;2022-11-10T06:45:18;7.60;99.90
3528;DHT22;1778;47.966;7.854;2022-11-10T06:46:39;7.60;99.90
3528;DHT22;1778;47.966;7.854;2022-11-10T06:48:11;7.50;99.90
3528;DHT22;1778;47.966;7.854;2022-11-10T06:49:32;7.50;99.90
3528;DHT22;1778;47.966;7.854;2022-11-10T06:50:52;7.50;99.90
3528;DHT22;1778;47.966;7.854;2022-11-10T06:52:12;7.50;99.90
3528;DHT22;1778;47.966;7.854;2022-11-10T06:53:32;7.50;99.90
3528;DHT22;1778;47.966;7.854;2022-11-10T06:54:52;7.50;99.90
3528;DHT22;1778;47.966;7.854;2022-11-10T06:56:12;7.40;99.90
3528;DHT22;1778;47.966;7.854;2022-11-10T06:57:38;7.50;99.90
3528;DHT22;1778;47.966;7.854;2022-11-10T06:58:58;7.50;99.90
3528;DHT22;1778;47.966;7.854;2022-11-10T07:00:19;7.50;99.90
3528;DHT22;1778;47.966;7.854;2022-11-10T07:01:39;7.50;99.90
3528;DHT22;1778;47.966;7.854;2022-11-10T07:03:04;7.50;99.90
3528;DHT22;1778;47.966;7.854;2022-11-10T07:04:24;7.50;99.90
3528;DHT22;1778;47.966;7.854;2022-11-10T07:05:44;7.50;99.90
3528;DHT22;1778;47.966;7.854;2022-11-10T07:07:04;7.50;99.90
3528;DHT22;1778;47.966;7.854;2022-11-10T07:08:24;7.50;99.90
3528;DHT22;1778;47.966;7.854;2022-11-10T07:09:44;7.50;99.90
3528;DHT22;1778;47.966;7.854;2022-11-10T07:11:04;7.50;99.90
3528;DHT22;1778;47.966;7.854;2022-11-10T07:12:24;7.50;99.90
3528;DHT22;1778;47.966;7.854;2022-11-10T07:13:44;7.50;99.90
3528;DHT22;1778;47.966;7.854;2022-11-10T07:15:05;7.50;99.90
3528;DHT22;1778;47.966;7.854;2022-11-10T07:16:25;7.50;99.90
3528;DHT22;1778;47.966;7.854;2022-11-10T07:17:46;7.50;99.90
3528;DHT22;1778;47.966;7.854;2022-11-10T07:19:06;7.60;99.90
3528;DHT22;1778;47.966;7.854;2022-11-10T07:20:26;7.60;99.90
3528;DHT22;1778;47.966;7.854;2022-11-10T07:21:47;7.60;99.90
3528;DHT22;1778;47.966;7.854;2022-11-10T07:23:07;7.70;99.90
3528;DHT22;1778;47.966;7.854;2022-11-10T07:24:28;7.60;99.90
3528;DHT22;1778;47.966;7.854;2022-11-10T07:25:49;7.60;99.90
3528;DHT22;1778;47.966;7.854;2022-11-10T07:27:09;7.60;99.90
3528;DHT22;1778;47.966;7.854;2022-11-10T07:28:29;7.60;99.90
3528;DHT22;1778;47.966;7.854;2022-11-10T07:29:49;7.60;99.90
3528;DHT22;1778;47.966;7.854;2022-11-10T07:31:09;7.50;99.90
3528;DHT22;1778;47.966;7.854;2022-11-10T07:32:29;7.60;99.90
3528;DHT22;1778;47.966;7.854;2022-11-10T07:33:49;7.60;99.90
3528;DHT22;1778;47.966;7.854;2022-11-10T07:35:13;7.60;99.90
3528;DHT22;1778;47.966;7.854;2022-11-10T07:36:33;7.50;99.90
3528;DHT22;1778;47.966;7.854;2022-11-10T07:37:54;7.50;99.90
3528;DHT22;1778;47.966;7.854;2022-11-10T07:39:14;7.50;99.90
3528;DHT22;1778;47.966;7.854;2022-11-10T07:40:34;7.50;99.90
3528;DHT22;1778;47.966;7.854;2022-11-10T07:41:55;7.50;99.90
3528;DHT22;1778;47.966;7.854;2022-11-10T07:43:18;7.50;99.90
3528;DHT22;1778;47.966;7.854;2022-11-10T07:44:38;7.50;99.90
3528;DHT22;1778;47.966;7.854;2022-11-10T07:45:58;7.60;99.90
3528;DHT22;1778;47.966;7.854;2022-11-10T07:47:19;7.60;99.90
3528;DHT22;1778;47.966;7.854;2022-11-10T07:48:39;7.60;99.90
3528;DHT22;1778;47.966;7.854;2022-11-10T07:49:59;7.60;99.90
3528;DHT22;1778;47.966;7.854;2022-11-10T07:51:19;7.60;99.90
3528;DHT22;1778;47.966;7.854;2022-11-10T07:52:39;7.70;99.90
3528;DHT22;1778;47.966;7.854;2022-11-10T07:53:58;7.70;99.90
3528;DHT22;1778;47.966;7.854;2022-11-10T07:55:18;7.80;99.90
3528;DHT22;1778;47.966;7.854;2022-11-10T07:56:39;7.80;99.90
3528;DHT22;1778;47.966;7.854;2022-11-10T07:58:00;7.80;99.90
3528;DHT22;1778;47.966;7.854;2022-11-10T07:59:19;7.90;99.90
3528;DHT22;1778;47.966;7.854;2022-11-10T08:00:41;7.90;99.90
3528;DHT22;1778;47.966;7.854;2022-11-10T08:02:01;7.90;99.90
3528;DHT22;1778;47.966;7.854;2022-11-10T08:03:22;7.90;99.90
3528;DHT22;1778;47.966;7.854;2022-11-10T08:04:42;8.00;99.90
3528;DHT22;1778;47.966;7.854;2022-11-10T08:06:02;8.00;99.90
3528;DHT22;1778;47.966;7.854;2022-11-10T08:07:21;8.00;99.90
3528;DHT22;1778;47.966;7.854;2022-11-10T08:08:42;8.00;99.90
3528;DHT22;1778;47.966;7.854;2022-11-10T08:10:02;8.20;99.90
3528;DHT22;1778;47.966;7.854;2022-11-10T08:11:22;8.20;99.90
3528;DHT22;1778;47.966;7.854;2022-11-10T08:12:42;8.20;99.90
3528;DHT22;1778;47.966;7.854;2022-11-10T08:14:01;8.30;99.90
3528;DHT22;1778;47.966;7.854;2022-11-10T08:15:22;8.20;99.90
3528;DHT22;1778;47.966;7.854;2022-11-10T08:16:42;8.30;99.90
3528;DHT22;1778;47.966;7.854;2022-11-10T08:19:24;8.30;99.90
3528;DHT22;1778;47.966;7.854;2022-11-10T08:20:44;8.40;99.90
3528;DHT22;1778;47.966;7.854;2022-11-10T08:22:04;8.40;99.90
3528;DHT22;1778;47.966;7.854;2022-11-10T08:23:24;8.50;99.90
3528;DHT22;1778;47.966;7.854;2022-11-10T08:24:44;8.50;99.90
3528;DHT22;1778;47.966;7.854;2022-11-10T08:26:04;8.50;99.90
3528;DHT22;1778;47.966;7.854;2022-11-10T08:27:24;8.60;99.90
3528;DHT22;1778;47.966;7.854;2022-11-10T08:28:44;8.60;99.90
3528;DHT22;1778;47.966;7.854;2022-11-10T08:30:04;8.70;99.90
3528;DHT22;1778;47.966;7.854;2022-11-10T08:31:25;8.70;99.90
3528;DHT22;1778;47.966;7.854;2022-11-10T08:32:45;8.80;99.90
3528;DHT22;1778;47.966;7.854;2022-11-10T08:34:05;8.80;99.90
3528;DHT22;1778;47.966;7.854;2022-11-10T08:35:26;8.80;99.90
3528;DHT22;1778;47.966;7.854;2022-11-10T08:36:47;8.90;99.90
3528;DHT22;1778;47.966;7.854;2022-11-10T08:38:19;8.90;99.90
3528;DHT22;1778;47.966;7.854;2022-11-10T08:39:40;8.90;99.90
3528;DHT22;1778;47.966;7.854;2022-11-10T08:41:00;8.90;99.90
3528;DHT22;1778;47.966;7.854;2022-11-10T08:42:20;9.00;99.90
3528;DHT22;1778;47.966;7.854;2022-11-10T08:43:40;9.00;99.90
3528;DHT22;1778;47.966;7.854;2022-11-10T08:45:00;9.00;99.90
3528;DHT22;1778;47.966;7.854;2022-11-10T08:46:21;9.00;99.90
3528;DHT22;1778;47.966;7.854;2022-11-10T08:47:41;9.10;99.90
3528;DHT22;1778;47.966;7.854;2022-11-10T08:49:04;9.20;99.90
3528;DHT22;1778;47.966;7.854;2022-11-10T08:50:24;9.20;99.90
3528;DHT22;1778;47.966;7.854;2022-11-10T08:51:45;9.20;99.90
3528;DHT22;1778;47.966;7.854;2022-11-10T08:53:07;9.30;99.90
3528;DHT22;1778;47.966;7.854;2022-11-10T08:54:28;9.30;99.90
3528;DHT22;1778;47.966;7.854;2022-11-10T08:55:49;9.40;99.90
3528;DHT22;1778;47.966;7.854;2022-11-10T08:57:09;9.40;99.90
3528;DHT22;1778;47.966;7.854;2022-11-10T08:58:29;9.40;99.90
3528;DHT22;1778;47.966;7.854;2022-11-10T08:59:49;9.50;99.90
3528;DHT22;1778;47.966;7.854;2022-11-10T09:01:10;9.50;99.90
3528;DHT22;1778;47.966;7.854;2022-11-10T09:02:30;9.50;99.90